PWSweather.com
Personal Weather Stations
Station Observations
LOBIOS
Galicia, LobiosES

GaliciaLobiosES

Lat: 41.895, Lon: -8.091667

Elevation: 1597

Station Type: Automática/Davis Vantage Pro2 Plus

Latest ConditionsUpdated 7:10:02 PM GMT+01:01 Tuesday, Nov 12, 2019
Currently Today's Max Today's Min Today's Average
Temperature 50.9°F10.5°C 50.9°F10.5°C 41.1°F5.1°C 44.6°F7.0°C
Dew Point 49.8°F9.9°C 49.8°F9.9°C 39.4°F4.1°C 43.1°F6.2°C
Winds 8.1 mph WSW13.0 kmh WSW 12.7 mph -20.4 kmh - - 3.6 mph 5.8 kmh
Wind Gusts 10.4 mph16.7 kmh 16.1 mph25.9 kmh - -
Humidity 96% 96% 91% 94%
Pressure 29.91 in1012.9 mb 30.23 in1023.7 mb 29.91 in1012.9 mb -
Precipitation - 0.44 in11.2 mm - -
Hour Temp Dew Point Humidity Winds Wind Gusts Pressure Precip Precip Rate Daily Precip Total
07:10 PM 50.9°F10.5°C 49.8°F9.9°C 96% 8.1 mph WSW13.0 kmh WSW 10.4 mph16.7 kmh 29.91 in1012.9 mb - 0.02 in0.5 mm 0.44 in11.2 mm
07:00 PM 50.7°F10.4°C 49.6°F9.8°C 96% 6.9 mph WSW11.1 kmh WSW 11.5 mph18.5 kmh 29.91 in1012.9 mb - 0.02 in0.5 mm 0.43 in10.9 mm
06:50 PM 50.6°F10.3°C 49.5°F9.7°C 96% 5.8 mph SW9.3 kmh SW 8.1 mph13.0 kmh 29.92 in1013.2 mb - 0.03 in0.8 mm 0.41 in10.4 mm
06:40 PM 50.6°F10.3°C 49.5°F9.7°C 96% 10.4 mph SW16.7 kmh SW 11.5 mph18.5 kmh 29.93 in1013.5 mb - 0.04 in1.0 mm 0.38 in9.7 mm
06:30 PM 50.5°F10.3°C 49.4°F9.7°C 96% 8.1 mph WSW13.0 kmh WSW 11.5 mph18.5 kmh 29.94 in1013.9 mb - 0.03 in0.8 mm 0.35 in8.9 mm
06:20 PM 50.4°F10.2°C 49.3°F9.6°C 96% 9.2 mph SW14.8 kmh SW 12.7 mph20.4 kmh 29.93 in1013.5 mb - 0.03 in0.8 mm 0.32 in8.1 mm
06:10 PM 50.2°F10.1°C 49.1°F9.5°C 96% 9.2 mph WSW14.8 kmh WSW 11.5 mph18.5 kmh 29.94 in1013.9 mb - 0.02 in0.5 mm 0.29 in7.4 mm
06:00 PM 50.2°F10.1°C 49.1°F9.5°C 96% 6.9 mph WSW11.1 kmh WSW 10.4 mph16.7 kmh 29.94 in1013.9 mb - 0.02 in0.5 mm 0.28 in7.1 mm
05:50 PM 50.1°F10.1°C 49.0°F9.4°C 96% 11.5 mph WSW18.5 kmh WSW 13.8 mph22.2 kmh 29.94 in1013.9 mb - 0.02 in0.5 mm 0.25 in6.4 mm
05:40 PM 50.0°F10.0°C 48.9°F9.4°C 96% 12.7 mph SW20.4 kmh SW 16.1 mph25.9 kmh 29.94 in1013.9 mb - 0.02 in0.5 mm 0.24 in6.1 mm
05:30 PM 49.8°F9.9°C 48.7°F9.3°C 96% 10.4 mph SW16.7 kmh SW 13.8 mph22.2 kmh 29.95 in1014.2 mb - 0.02 in0.5 mm 0.21 in5.3 mm
05:20 PM 49.6°F9.8°C 48.5°F9.2°C 96% 9.2 mph SW14.8 kmh SW 11.5 mph18.5 kmh 29.96 in1014.6 mb - 0.02 in0.5 mm 0.20 in5.1 mm
05:10 PM 49.5°F9.7°C 48.1°F8.9°C 95% 10.4 mph SW16.7 kmh SW 11.5 mph18.5 kmh 29.96 in1014.6 mb - 0.02 in0.5 mm 0.18 in4.6 mm
05:00 PM 49.4°F9.7°C 48.0°F8.9°C 95% 9.2 mph SW14.8 kmh SW 10.4 mph16.7 kmh 29.97 in1014.9 mb - 0.01 in0.3 mm 0.16 in4.1 mm
04:50 PM 49.4°F9.7°C 48.0°F8.9°C 95% 9.2 mph SW14.8 kmh SW 11.5 mph18.5 kmh 29.98 in1015.2 mb - 0.02 in0.5 mm 0.15 in3.8 mm
04:40 PM 49.4°F9.7°C 48.0°F8.9°C 95% 10.4 mph WSW16.7 kmh WSW 11.5 mph18.5 kmh 29.98 in1015.2 mb - 0.02 in0.5 mm 0.13 in3.3 mm
04:20 PM 49.2°F9.6°C 47.8°F8.8°C 95% 6.9 mph WSW11.1 kmh WSW 10.4 mph16.7 kmh 30.00 in1015.9 mb - 0.02 in0.5 mm 0.11 in2.8 mm
04:10 PM 49.4°F9.7°C 48.0°F8.9°C 95% 8.1 mph WSW13.0 kmh WSW 11.5 mph18.5 kmh 30.00 in1015.9 mb - 0.01 in0.3 mm 0.09 in2.3 mm
04:00 PM 49.2°F9.6°C 48.2°F9.0°C 96% 8.1 mph WSW13.0 kmh WSW 9.2 mph14.8 kmh 30.00 in1015.9 mb - 0.00 in0.0 mm 0.09 in2.3 mm
03:50 PM 49.1°F9.5°C 48.0°F8.9°C 96% 6.9 mph WSW11.1 kmh WSW 9.2 mph14.8 kmh 30.00 in1015.9 mb - 0.01 in0.3 mm 0.09 in2.3 mm
03:40 PM 48.7°F9.3°C 47.3°F8.5°C 95% 6.9 mph WSW11.1 kmh WSW 8.1 mph13.0 kmh 30.01 in1016.3 mb - 0.00 in0.0 mm 0.08 in2.0 mm
03:30 PM 48.6°F9.2°C 47.2°F8.4°C 95% 6.9 mph SW11.1 kmh SW 8.1 mph13.0 kmh 30.02 in1016.6 mb - 0.02 in0.5 mm 0.08 in2.0 mm
03:20 PM 48.5°F9.2°C 47.1°F8.4°C 95% 9.2 mph SW14.8 kmh SW 13.8 mph22.2 kmh 30.03 in1016.9 mb - 0.00 in0.0 mm 0.06 in1.5 mm
03:10 PM 48.6°F9.2°C 47.2°F8.4°C 95% 9.2 mph WSW14.8 kmh WSW 9.2 mph14.8 kmh 30.02 in1016.6 mb - 0.01 in0.3 mm 0.06 in1.5 mm
03:00 PM 48.6°F9.2°C 47.2°F8.4°C 95% 9.2 mph WSW14.8 kmh WSW 11.5 mph18.5 kmh 30.03 in1016.9 mb - 0.00 in0.0 mm 0.06 in1.5 mm
02:50 PM 48.4°F9.1°C 47.0°F8.3°C 95% 8.1 mph SW13.0 kmh SW 11.5 mph18.5 kmh 30.04 in1017.3 mb - 0.01 in0.3 mm 0.06 in1.5 mm
02:40 PM 48.3°F9.1°C 46.9°F8.3°C 95% 8.1 mph SW13.0 kmh SW 11.5 mph18.5 kmh 30.04 in1017.3 mb - 0.01 in0.3 mm 0.05 in1.3 mm
02:30 PM 48.4°F9.1°C 47.0°F8.3°C 95% 9.2 mph WSW14.8 kmh WSW 11.5 mph18.5 kmh 30.05 in1017.6 mb - 0.01 in0.3 mm 0.04 in1.0 mm
02:20 PM 48.5°F9.2°C 47.1°F8.4°C 95% 6.9 mph WSW11.1 kmh WSW 11.5 mph18.5 kmh 30.06 in1017.9 mb - 0.01 in0.3 mm 0.03 in0.8 mm
02:10 PM 48.5°F9.2°C 47.1°F8.4°C 95% 9.2 mph WSW14.8 kmh WSW 13.8 mph22.2 kmh 30.06 in1017.9 mb - 0.02 in0.5 mm 0.03 in0.8 mm
02:00 PM 48.3°F9.1°C 46.9°F8.3°C 95% 9.2 mph WSW14.8 kmh WSW 11.5 mph18.5 kmh 30.07 in1018.3 mb - 0.02 in0.5 mm 0.02 in0.5 mm
01:50 PM 48.1°F8.9°C 46.8°F8.2°C 95% 9.2 mph WSW14.8 kmh WSW 11.5 mph18.5 kmh 30.07 in1018.3 mb - 0.01 in0.3 mm 0.02 in0.5 mm
01:40 PM 48.1°F8.9°C 46.7°F8.2°C 95% 8.1 mph WSW13.0 kmh WSW 11.5 mph18.5 kmh 30.07 in1018.3 mb - 0.00 in0.0 mm 0.01 in0.3 mm
01:30 PM 48.0°F8.9°C 46.6°F8.1°C 95% 9.2 mph WSW14.8 kmh WSW 11.5 mph18.5 kmh 30.08 in1018.6 mb - 0.00 in0.0 mm 0.01 in0.3 mm
01:20 PM 48.1°F8.9°C 46.7°F8.2°C 95% 9.2 mph WSW14.8 kmh WSW 12.7 mph20.4 kmh 30.08 in1018.6 mb - 0.01 in0.3 mm 0.01 in0.3 mm
01:10 PM 48.1°F8.9°C 46.7°F8.2°C 95% 10.4 mph WSW16.7 kmh WSW 11.5 mph18.5 kmh 30.09 in1019.0 mb - 0.00 in0.0 mm 0.00 in0.0 mm
01:00 PM 47.8°F8.8°C 46.4°F8.0°C 95% 9.2 mph WSW14.8 kmh WSW 12.7 mph20.4 kmh 30.10 in1019.3 mb - 0.00 in0.0 mm 0.00 in0.0 mm
12:50 PM 47.3°F8.5°C 45.9°F7.7°C 95% 6.9 mph WSW11.1 kmh WSW 11.5 mph18.5 kmh 30.10 in1019.3 mb - 0.00 in0.0 mm 0.00 in0.0 mm
12:40 PM 46.8°F8.2°C 45.4°F7.4°C 95% 6.9 mph WSW11.1 kmh WSW 11.5 mph18.5 kmh 30.11 in1019.6 mb - 0.00 in0.0 mm 0.00 in0.0 mm
12:30 PM 46.3°F7.9°C 44.9°F7.2°C 95% 4.6 mph SW7.4 kmh SW 4.6 mph7.4 kmh 30.12 in1020.0 mb - 0.00 in0.0 mm 0.00 in0.0 mm
12:10 PM 45.6°F7.6°C 44.2°F6.8°C 95% 1.1 mph SW1.8 kmh SW 4.6 mph7.4 kmh 30.13 in1020.3 mb - 0.00 in0.0 mm 0.00 in0.0 mm
12:00 PM 45.4°F7.4°C 44.0°F6.7°C 95% Calm Calm -- 30.14 in1020.7 mb - 0.00 in0.0 mm 0.00 in0.0 mm
11:50 AM 45.3°F7.4°C 43.9°F6.6°C 95% Calm Calm -- 30.14 in1020.7 mb - 0.00 in0.0 mm 0.00 in0.0 mm
11:40 AM 45.3°F7.4°C 44.0°F6.7°C 95% Calm Calm -- 30.14 in1020.7 mb - 0.00 in0.0 mm 0.00 in0.0 mm
11:30 AM 45.0°F7.2°C 43.7°F6.5°C 95% Calm Calm -- 30.15 in1021.0 mb - 0.00 in0.0 mm 0.00 in0.0 mm
11:20 AM 44.7°F7.1°C 43.4°F6.3°C 95% Calm Calm 1.1 mph1.8 kmh 30.15 in1021.0 mb - 0.00 in0.0 mm 0.00 in0.0 mm
11:10 AM 44.3°F6.8°C 43.0°F6.1°C 95% Calm Calm 2.3 mph3.7 kmh 30.15 in1021.0 mb - 0.00 in0.0 mm 0.00 in0.0 mm
11:00 AM 44.2°F6.8°C 42.9°F6.1°C 95% Calm Calm -- 30.16 in1021.3 mb - 0.00 in0.0 mm 0.00 in0.0 mm
10:50 AM 44.1°F6.7°C 42.8°F6.0°C 95% 1.1 mph SW1.8 kmh SW 2.3 mph3.7 kmh 30.15 in1021.0 mb - 0.00 in0.0 mm 0.00 in0.0 mm
10:40 AM 43.9°F6.6°C 42.6°F5.9°C 95% Calm Calm -- 30.15 in1021.0 mb - 0.00 in0.0 mm 0.00 in0.0 mm
10:30 AM 43.8°F6.6°C 42.5°F5.8°C 95% 1.1 mph SW1.8 kmh SW 3.5 mph5.6 kmh 30.15 in1021.0 mb - 0.00 in0.0 mm 0.00 in0.0 mm
10:20 AM 43.5°F6.4°C 42.2°F5.7°C 95% Calm Calm 2.3 mph3.7 kmh 30.16 in1021.3 mb - 0.00 in0.0 mm 0.00 in0.0 mm
10:10 AM 43.4°F6.3°C 42.0°F5.6°C 95% Calm Calm -- 30.16 in1021.3 mb - 0.00 in0.0 mm 0.00 in0.0 mm
10:00 AM 43.4°F6.3°C 42.1°F5.6°C 95% 4.6 mph SW7.4 kmh SW 5.8 mph9.3 kmh 30.16 in1021.3 mb - 0.00 in0.0 mm 0.00 in0.0 mm
09:50 AM 43.0°F6.1°C 41.7°F5.4°C 95% 4.6 mph SW7.4 kmh SW 4.6 mph7.4 kmh 30.15 in1021.0 mb - 0.00 in0.0 mm 0.00 in0.0 mm
09:40 AM 42.7°F5.9°C 41.4°F5.2°C 95% 5.8 mph SW9.3 kmh SW 5.8 mph9.3 kmh 30.16 in1021.3 mb - 0.00 in0.0 mm 0.00 in0.0 mm
09:30 AM 42.5°F5.8°C 41.1°F5.1°C 95% 3.5 mph NNE5.6 kmh NNE 4.6 mph7.4 kmh 30.16 in1021.3 mb - 0.00 in0.0 mm 0.00 in0.0 mm
09:20 AM 42.3°F5.7°C 41.0°F5.0°C 95% Calm Calm -- 30.16 in1021.3 mb - 0.00 in0.0 mm 0.00 in0.0 mm
09:10 AM 42.2°F5.7°C 40.9°F4.9°C 95% 1.1 mph NNE1.8 kmh NNE 1.1 mph1.8 kmh 30.16 in1021.3 mb - 0.00 in0.0 mm 0.00 in0.0 mm
09:00 AM 42.0°F5.6°C 40.7°F4.8°C 95% Calm Calm -- 30.16 in1021.3 mb - 0.00 in0.0 mm 0.00 in0.0 mm
08:50 AM 41.9°F5.5°C 40.6°F4.8°C 95% Calm Calm -- 30.16 in1021.3 mb - 0.00 in0.0 mm 0.00 in0.0 mm
08:40 AM 41.9°F5.5°C 40.6°F4.8°C 95% Calm Calm -- 30.15 in1021.0 mb - 0.00 in0.0 mm 0.00 in0.0 mm
08:30 AM 41.8°F5.4°C 40.2°F4.6°C 94% Calm Calm -- 30.16 in1021.3 mb - 0.00 in0.0 mm 0.00 in0.0 mm
08:20 AM 41.8°F5.4°C 40.2°F4.6°C 94% 1.1 mph NNE1.8 kmh NNE 1.1 mph1.8 kmh 30.15 in1021.0 mb - 0.00 in0.0 mm 0.00 in0.0 mm
08:10 AM 41.8°F5.4°C 40.2°F4.6°C 94% 1.1 mph NNE1.8 kmh NNE 3.5 mph5.6 kmh 30.15 in1021.0 mb - 0.00 in0.0 mm 0.00 in0.0 mm
08:00 AM 41.8°F5.4°C 40.2°F4.6°C 94% 1.1 mph NNE1.8 kmh NNE 2.3 mph3.7 kmh 30.15 in1021.0 mb - 0.00 in0.0 mm 0.00 in0.0 mm
07:50 AM 41.7°F5.4°C 40.1°F4.5°C 94% 2.3 mph NNE3.7 kmh NNE 2.3 mph3.7 kmh 30.15 in1021.0 mb - 0.00 in0.0 mm 0.00 in0.0 mm
07:40 AM 41.6°F5.3°C 40.0°F4.4°C 94% 1.1 mph NNE1.8 kmh NNE 2.3 mph3.7 kmh 30.15 in1021.0 mb - 0.00 in0.0 mm 0.00 in0.0 mm
07:30 AM 41.5°F5.3°C 39.9°F4.4°C 94% Calm Calm -- 30.15 in1021.0 mb - 0.00 in0.0 mm 0.00 in0.0 mm
07:20 AM 41.4°F5.2°C 39.9°F4.4°C 94% Calm Calm -- 30.16 in1021.3 mb - 0.00 in0.0 mm 0.00 in0.0 mm
07:10 AM 41.4°F5.2°C 39.8°F4.3°C 94% Calm Calm -- 30.15 in1021.0 mb - 0.00 in0.0 mm 0.00 in0.0 mm
07:00 AM 41.5°F5.3°C 39.9°F4.4°C 94% Calm Calm -- 30.16 in1021.3 mb - 0.00 in0.0 mm 0.00 in0.0 mm
06:50 AM 41.5°F5.3°C 39.9°F4.4°C 94% Calm Calm -- 30.16 in1021.3 mb - 0.00 in0.0 mm 0.00 in0.0 mm
06:40 AM 41.4°F5.2°C 39.8°F4.3°C 94% Calm Calm -- 30.16 in1021.3 mb - 0.00 in0.0 mm 0.00 in0.0 mm
06:30 AM 41.4°F5.2°C 39.8°F4.3°C 94% Calm Calm -- 30.16 in1021.3 mb - 0.00 in0.0 mm 0.00 in0.0 mm
06:20 AM 41.2°F5.1°C 39.6°F4.2°C 94% Calm Calm -- 30.16 in1021.3 mb - 0.00 in0.0 mm 0.00 in0.0 mm
06:10 AM 41.2°F5.1°C 39.6°F4.2°C 94% Calm Calm -- 30.17 in1021.7 mb - 0.00 in0.0 mm 0.00 in0.0 mm
06:00 AM 41.2°F5.1°C 39.6°F4.2°C 94% Calm Calm -- 30.17 in1021.7 mb - 0.00 in0.0 mm 0.00 in0.0 mm
05:50 AM 41.1°F5.1°C 39.5°F4.2°C 94% Calm Calm -- 30.17 in1021.7 mb - 0.00 in0.0 mm 0.00 in0.0 mm
05:40 AM 41.1°F5.1°C 39.5°F4.2°C 94% Calm Calm -- 30.17 in1021.7 mb - 0.00 in0.0 mm 0.00 in0.0 mm
05:30 AM 41.1°F5.1°C 39.5°F4.2°C 94% Calm Calm -- 30.17 in1021.7 mb - 0.00 in0.0 mm 0.00 in0.0 mm
05:20 AM 41.2°F5.1°C 39.6°F4.2°C 94% Calm Calm -- 30.17 in1021.7 mb - 0.00 in0.0 mm 0.00 in0.0 mm
05:10 AM 41.3°F5.2°C 39.7°F4.3°C 94% Calm Calm -- 30.17 in1021.7 mb - 0.00 in0.0 mm 0.00 in0.0 mm
05:00 AM 41.3°F5.2°C 39.7°F4.3°C 94% 1.1 mph NNE1.8 kmh NNE 2.3 mph3.7 kmh 30.16 in1021.3 mb - 0.00 in0.0 mm 0.00 in0.0 mm
04:50 AM 41.3°F5.2°C 39.7°F4.3°C 94% Calm Calm -- 30.17 in1021.7 mb - 0.00 in0.0 mm 0.00 in0.0 mm
04:40 AM 41.2°F5.1°C 39.6°F4.2°C 94% Calm Calm -- 30.17 in1021.7 mb - 0.00 in0.0 mm 0.00 in0.0 mm
04:30 AM 41.3°F5.2°C 39.7°F4.3°C 94% Calm Calm -- 30.17 in1021.7 mb - 0.00 in0.0 mm 0.00 in0.0 mm
04:20 AM 41.3°F5.2°C 39.4°F4.1°C 93% Calm Calm -- 30.17 in1021.7 mb - 0.00 in0.0 mm 0.00 in0.0 mm
04:10 AM 41.4°F5.2°C 39.8°F4.3°C 94% Calm Calm -- 30.17 in1021.7 mb - 0.00 in0.0 mm 0.00 in0.0 mm
04:00 AM 41.5°F5.3°C 39.9°F4.4°C 94% Calm Calm -- 30.17 in1021.7 mb - 0.00 in0.0 mm 0.00 in0.0 mm
03:50 AM 41.5°F5.3°C 39.9°F4.4°C 94% 2.3 mph NNE3.7 kmh NNE 3.5 mph5.6 kmh 30.18 in1022.0 mb - 0.00 in0.0 mm 0.00 in0.0 mm
03:40 AM 41.3°F5.2°C 39.4°F4.1°C 93% Calm Calm 2.3 mph3.7 kmh 30.19 in1022.4 mb - 0.00 in0.0 mm 0.00 in0.0 mm
03:30 AM 41.3°F5.2°C 39.4°F4.1°C 93% Calm Calm -- 30.19 in1022.4 mb - 0.00 in0.0 mm 0.00 in0.0 mm
03:20 AM 41.3°F5.2°C 39.4°F4.1°C 93% Calm Calm -- 30.18 in1022.0 mb - 0.00 in0.0 mm 0.00 in0.0 mm
03:10 AM 41.3°F5.2°C 39.4°F4.1°C 93% Calm Calm -- 30.19 in1022.4 mb - 0.00 in0.0 mm 0.00 in0.0 mm
03:00 AM 41.4°F5.2°C 39.5°F4.2°C 93% Calm Calm -- 30.18 in1022.0 mb - 0.00 in0.0 mm 0.00 in0.0 mm
02:50 AM 41.5°F5.3°C 39.6°F4.2°C 93% Calm Calm -- 30.18 in1022.0 mb - 0.00 in0.0 mm 0.00 in0.0 mm
02:40 AM 41.5°F5.3°C 39.6°F4.2°C 93% Calm Calm -- 30.20 in1022.7 mb - 0.00 in0.0 mm 0.00 in0.0 mm
02:30 AM 41.5°F5.3°C 39.6°F4.2°C 93% Calm Calm -- 30.21 in1023.0 mb - 0.00 in0.0 mm 0.00 in0.0 mm
02:20 AM 41.4°F5.2°C 39.6°F4.2°C 93% 2.3 mph NNE3.7 kmh NNE 3.5 mph5.6 kmh 30.22 in1023.4 mb - 0.00 in0.0 mm 0.00 in0.0 mm
02:10 AM 41.4°F5.2°C 39.5°F4.2°C 93% Calm Calm -- 30.22 in1023.4 mb - 0.00 in0.0 mm 0.00 in0.0 mm
02:00 AM 41.5°F5.3°C 39.6°F4.2°C 93% 2.3 mph NNE3.7 kmh NNE 3.5 mph5.6 kmh 30.22 in1023.4 mb - 0.00 in0.0 mm 0.00 in0.0 mm
01:50 AM 41.7°F5.4°C 39.8°F4.3°C 93% 2.3 mph SW3.7 kmh SW 4.6 mph7.4 kmh 30.21 in1023.0 mb - 0.00 in0.0 mm 0.00 in0.0 mm
01:30 AM 42.0°F5.6°C 39.8°F4.3°C 92% 3.5 mph SW5.6 kmh SW 3.5 mph5.6 kmh 30.20 in1022.7 mb - 0.00 in0.0 mm 0.00 in0.0 mm
01:20 AM 42.2°F5.7°C 40.0°F4.4°C 92% Calm Calm -- 30.21 in1023.0 mb - 0.00 in0.0 mm 0.00 in0.0 mm
01:10 AM 42.3°F5.7°C 40.1°F4.5°C 92% Calm Calm 1.1 mph1.8 kmh 30.23 in1023.7 mb - 0.00 in0.0 mm 0.00 in0.0 mm
01:00 AM 42.4°F5.8°C 40.2°F4.6°C 92% Calm Calm 1.1 mph1.8 kmh 30.23 in1023.7 mb - 0.00 in0.0 mm 0.00 in0.0 mm
12:50 AM 42.6°F5.9°C 40.4°F4.7°C 92% Calm Calm -- 30.23 in1023.7 mb - 0.00 in0.0 mm 0.00 in0.0 mm
12:40 AM 42.7°F5.9°C 40.5°F4.7°C 92% 2.3 mph NNE3.7 kmh NNE 3.5 mph5.6 kmh 30.23 in1023.7 mb - 0.00 in0.0 mm 0.00 in0.0 mm
12:30 AM 42.8°F6.0°C 40.6°F4.8°C 92% 3.5 mph NE5.6 kmh NE 5.8 mph9.3 kmh 30.22 in1023.4 mb - 0.00 in0.0 mm 0.00 in0.0 mm
12:20 AM 42.8°F6.0°C 40.6°F4.8°C 92% 3.5 mph NE5.6 kmh NE 4.6 mph7.4 kmh 30.22 in1023.4 mb - 0.00 in0.0 mm 0.00 in0.0 mm
12:10 AM 42.8°F6.0°C 40.3°F4.6°C 91% 3.5 mph NE5.6 kmh NE 3.5 mph5.6 kmh 30.22 in1023.4 mb - 0.00 in0.0 mm 0.00 in0.0 mm
12:00 AM 42.9°F6.1°C 40.4°F4.7°C 91% 2.3 mph NE3.7 kmh NE 3.5 mph5.6 kmh 30.22 in1023.4 mb - 0.00 in0.0 mm 0.00 in0.0 mm